James Cook — MLRM6 — position and weather

sailwx.info

Track history (hours):
 
Tides and Currents Weather Stations Pressure Air Temp Water Temp Dewpoint Dewpoint Depression Visibility Wind Speed Wind Dir Waves Ship Positions

Oceanographic research ship James Cook (UK)

Last reported at 2017-Aug-18 00:00 UTC. Time now 2017-Aug-18 02:45 UTC.
Position N 46°00' W 008°30'.

Length 89.2 m; beam 18.6 m; draft 5.7 m.

Type: Other ship. MMSI: 235010700.

Wind from 270 at 13 knots

Barometer 1017.9 mb
Air temperature 19.2 ° C
Visibility: greater than 10.8 NM
Dewpoint 17.2 ° C
Water temperature 19.5 ° C

Date/timePositionNaut miles runAvg speedWind from/ knotsBaromVisibWave heightAir tempDewpointWater temp
2017-Aug-18 00:00N 46°00' W 008°30'56 9.4 270 / 131017.910.8 19.217.219.5
2017-Aug-17 18:00N 45°12' W 009°12'84 9.3 260 / 111017.810.8 19.018.019.8
2017-Aug-17 09:00N 44°00' W 010°12'3110.4 230 / 151019.9 5.4 21.519.220.1
2017-Aug-17 06:00N 43°30' W 010°24'6310.4 250 / 111020.210.8 19.818.519.9
2017-Aug-17 00:00N 42°30' W 010°48'56 9.3 260 / 121021.910.8 19.819.020.1
2017-Aug-16 18:00N 41°36' W 011°06'57 9.5 300 / 91022.6 21.919.720.8
2017-Aug-16 12:00N 40°42' W 011°30'1010.1 320 / 41024.010.8 21.917.920.9
2017-Aug-16 11:00N 40°37' W 011°41'1610.4
2017-Aug-16 09:28N 40°22' W 011°48'5 9.8
2017-Aug-16 08:59N 40°17' W 011°49'3612.0
2017-Aug-16 06:00N 39°42' W 012°00'16 7.8 360 / 111022.910.8 20.016.421.1
2017-Aug-16 03:57N 39°27' W 012°08'610.1
2017-Aug-16 03:23N 39°22' W 012°11'710.4
2017-Aug-16 02:45N 39°16' W 012°14'310.2
2017-Aug-16 02:30N 39°14' W 012°15'3212.9
2017-Aug-16 00:00N 38°42' W 012°24'26 8.6 340 / 161024.110.8 20.918.721.7
2017-Aug-15 21:00N 38°18' W 012°36'3612.0 360 / 141023.910.8 21.518.321.8
2017-Aug-15 18:00N 37°42' W 012°36'30 8.9 010 / 171022.310.8 21.118.721.8
2017-Aug-15 14:36N 37°14' W 012°51'110.0
2017-Aug-15 14:29N 37°13' W 012°52'510.1
2017-Aug-15 13:57N 37°09' W 012°56'610.0
2017-Aug-15 13:22N 37°05' W 013°01'610.3
2017-Aug-15 12:49N 37°00' W 013°05'12 9.9
2017-Aug-15 11:35N 36°48' W 013°08'110.4
2017-Aug-15 11:30N 36°48' W 013°08'710.4
2017-Aug-15 10:50N 36°41' W 013°11'5411.2
2017-Aug-15 06:00N 35°48' W 013°24'2 5.6 040 / 151019.510.8 21.116.722.2
2017-Aug-15 05:35N 35°46' W 013°26'210.8
2017-Aug-15 05:25N 35°45' W 013°27'710.9
2017-Aug-15 04:49N 35°39' W 013°29'511.0
2017-Aug-15 04:23N 35°34' W 013°31'411.0
2017-Aug-15 04:00N 35°30' W 013°33'1111.0
2017-Aug-15 03:00N 35°20' W 013°38'911.2
2017-Aug-15 02:10N 35°11' W 013°42'211.2
2017-Aug-15 01:58N 35°09' W 013°43'511.1
2017-Aug-15 01:30N 35°04' W 013°45'511.0
2017-Aug-15 01:00N 34°59' W 013°47'711.0
2017-Aug-15 00:23N 34°53' W 013°50'410.9
2017-Aug-15 00:01N 34°49' W 013°52'510.8
2017-Aug-14 23:30N 34°44' W 013°54'510.9
2017-Aug-14 23:01N 34°39' W 013°56'611.3
2017-Aug-14 22:28N 34°33' W 013°58'611.4
2017-Aug-14 21:58N 34°27' W 014°00'2910.9
2017-Aug-14 19:18N 34°02' W 014°18'511.2
2017-Aug-14 18:54N 33°59' W 014°22'711.0
2017-Aug-14 18:14N 33°54' W 014°29'310.8
2017-Aug-14 18:00N 33°53' W 014°31'5424.4
2017-Aug-14 18:00N 33°48' W 014°30'510.5 040 / 151017.110.8 22.018.422.6
2017-Aug-14 17:30N 33°49' W 014°36'610.6
2017-Aug-14 16:59N 33°44' W 014°39'510.9
2017-Aug-14 16:30N 33°39' W 014°41'510.9
2017-Aug-14 16:00N 33°34' W 014°44'711.0
2017-Aug-14 15:20N 33°28' W 014°47'411.0
2017-Aug-14 15:00N 33°24' W 014°48'810.7
2017-Aug-14 14:14N 33°16' W 014°52'310.6
2017-Aug-14 14:00N 33°14' W 014°53'510.8
2017-Aug-14 13:31N 33°09' W 014°55'510.8
2017-Aug-14 13:01N 33°04' W 014°57'510.8
2017-Aug-14 12:31N 32°58' W 014°56'510.8
2017-Aug-14 12:01N 32°53' W 014°54'510.8
2017-Aug-14 11:31N 32°48' W 014°53'510.8
2017-Aug-14 11:00N 32°42' W 014°52'3210.8
2017-Aug-14 08:06N 32°11' W 014°46'110.9
2017-Aug-14 08:00N 32°10' W 014°46'510.9
2017-Aug-14 07:31N 32°05' W 014°48'610.9
2017-Aug-14 07:00N 31°60' W 014°50'811.0
2017-Aug-14 06:17N 31°52' W 014°52'311.2
2017-Aug-14 06:00N 31°49' W 014°53'5281.1
2017-Aug-14 06:00N 31°48' W 014°48'714.6 020 / 121014.510.8 21.518.522.9
2017-Aug-14 05:30N 31°44' W 014°55'611.2
2017-Aug-14 04:57N 31°38' W 014°57'511.1
2017-Aug-14 04:29N 31°33' W 014°59'611.2
2017-Aug-14 03:55N 31°27' W 015°01'511.2
2017-Aug-14 03:29N 31°22' W 015°03'511.2
2017-Aug-14 03:00N 31°17' W 015°04'611.1
2017-Aug-14 02:26N 31°11' W 015°06'511.1
2017-Aug-14 02:00N 31°07' W 015°08'510.9
2017-Aug-14 01:30N 31°01' W 015°10'610.9
2017-Aug-14 01:00N 30°56' W 015°12'510.9
2017-Aug-14 00:30N 30°51' W 015°13'510.9
2017-Aug-14 00:00N 30°46' W 015°15'510.8
2017-Aug-13 23:30N 30°41' W 015°17'510.8
2017-Aug-13 23:00N 30°36' W 015°19'510.6
2017-Aug-13 22:31N 30°30' W 015°21'510.4
2017-Aug-13 22:01N 30°25' W 015°22'510.4
2017-Aug-13 21:31N 30°20' W 015°24'510.4
2017-Aug-13 21:00N 30°15' W 015°26'510.4
2017-Aug-13 20:30N 30°10' W 015°27'510.4
2017-Aug-13 20:00N 30°06' W 015°29'510.5
2017-Aug-13 19:30N 30°00' W 015°31'510.6
2017-Aug-13 19:00N 29°55' W 015°33'510.6
2017-Aug-13 18:29N 29°50' W 015°34'510.7
2017-Aug-13 17:59N 29°45' W 015°36'510.7
2017-Aug-13 17:31N 29°40' W 015°38'510.6
2017-Aug-13 17:00N 29°35' W 015°39'510.6
2017-Aug-13 16:31N 29°30' W 015°41'510.8
2017-Aug-13 16:00N 29°25' W 015°43'510.8
2017-Aug-13 15:31N 29°20' W 015°45'610.8
2017-Aug-13 14:59N 29°14' W 015°47'510.9
2017-Aug-13 14:30N 29°09' W 015°48'510.9
2017-Aug-13 14:01N 29°04' W 015°50'610.8
2017-Aug-13 13:29N 28°59' W 015°52'510.7
2017-Aug-13 13:00N 28°54' W 015°54'510.5
2017-Aug-13 12:30N 28°49' W 015°56'510.2
2017-Aug-13 12:00N 28°44' W 015°57'3256.2
2017-Aug-13 12:00N 28°42' W 015°54'510.6 340 / 141017.510.8 23.518.523.9
2017-Aug-13 11:30N 28°39' W 015°59'5 9.6
2017-Aug-13 11:00N 28°34' W 016°01'5 9.7
2017-Aug-13 10:30N 28°31' W 016°05'5 9.5
2017-Aug-13 10:00N 28°28' W 016°09'510.0
2017-Aug-13 09:30N 28°27' W 016°14'1 1.6
2017-Aug-13 08:59N 28°28' W 016°15'0 0.0
2017-Aug-13 08:21N 28°28' W 016°15'0 0.0
2017-Aug-13 07:57N 28°28' W 016°15'0 0.0
2017-Aug-13 07:21N 28°28' W 016°15'0 0.0
2017-Aug-13 06:55N 28°28' W 016°15'0 0.0
2017-Aug-13 06:28N 28°28' W 016°15'0 0.0
2017-Aug-13 05:52N 28°28' W 016°15'0 0.0
2017-Aug-13 05:29N 28°28' W 016°15'0 0.0
2017-Aug-13 04:53N 28°28' W 016°15'0 0.0
2017-Aug-13 04:26N 28°28' W 016°15'0 0.0
2017-Aug-13 03:51N 28°28' W 016°15'0 0.0
2017-Aug-13 03:27N 28°28' W 016°15'0 0.0
2017-Aug-13 03:00N 28°28' W 016°15'0 0.0
2017-Aug-13 02:13N 28°28' W 016°15'0 0.0
2017-Aug-13 01:46N 28°28' W 016°15'0 0.0
2017-Aug-12 23:53N 28°28' W 016°15'0 0.0
2017-Aug-12 23:30N 28°28' W 016°15'0 0.0
2017-Aug-12 22:51N 28°28' W 016°15'0 0.0
2017-Aug-12 21:52N 28°28' W 016°15'0 0.0
2017-Aug-12 21:16N 28°28' W 016°15'0 0.0
2017-Aug-12 18:54N 28°28' W 016°15'0 0.0
2017-Aug-12 07:34N 28°28' W 016°15'0 0.0
2017-Aug-12 07:25N 28°28' W 016°15'0 0.0
2017-Aug-12 06:59N 28°28' W 016°15'0 0.0
2017-Aug-12 06:30N 28°28' W 016°15'1 2.8
2017-Aug-12 06:00N 28°27' W 016°14'2 4.5
2017-Aug-12 05:31N 28°24' W 016°13'10 7.6
2017-Aug-12 04:15N 28°16' W 016°19'210.0
2017-Aug-12 04:00N 28°14' W 016°20'36 8.9
2017-Aug-12 00:00N 27°48' W 016°48'6310.5 340 / 171016.910.8 24.120.623.8
2017-Aug-11 18:00N 27°24' W 017°54'12010.0 030 / 241016.010.8 25.520.326.1
2017-Aug-11 06:00N 26°30' W 019°54'3810.6 040 / 221014.510.8 24.522.326.2
2017-Aug-11 02:23N 26°19' W 020°35'1110.1
2017-Aug-11 01:19N 26°15' W 020°46'310.1
2017-Aug-11 01:00N 26°13' W 020°49'11 9.9
2017-Aug-10 23:55N 26°09' W 020°60'8 9.8
2017-Aug-10 23:06N 26°05' W 021°08'1 9.7
2017-Aug-10 23:00N 26°05' W 021°09'1210.1
2017-Aug-10 21:47N 26°00' W 021°21'1710.2
2017-Aug-10 20:08N 25°53' W 021°38'210.1
2017-Aug-10 19:59N 25°52' W 021°40'1510.2
2017-Aug-10 18:30N 25°46' W 021°55'611.6
2017-Aug-10 18:00N 25°42' W 022°00'13110.9 010 / 201014.510.8 24.522.326.3
2017-Aug-10 06:00N 24°48' W 024°12'6711.2 030 / 141015.810.8 25.021.126.2
2017-Aug-10 00:00N 24°18' W 025°18'6510.8 360 / 181017.6 5.4 24.519.224.7
2017-Aug-09 18:00N 23°54' W 026°24'6711.2 020 / 161016.810.8 25.520.226.2
2017-Aug-09 12:00N 23°24' W 027°30'8 8.1 060 / 141019.410.8 25.521.025.1
2017-Aug-09 11:00N 23°18' W 027°36'5310.6 020 / 121019.4 25.020.125.2
2017-Aug-09 06:00N 23°00' W 028°30'6811.3 020 / 161018.010.8 24.519.425.4
2017-Aug-09 00:00N 22°30' W 029°36'78 6.5 040 / 191019.010.8 25.020.125.5
2017-Aug-08 12:00N 22°00' W 030°54'6 0.5 040 / 171019.210.8 26.019.925.0
2017-Aug-08 00:00N 22°00' W 031°00'   020 / 121019.710.8 24.820.925.1
Track history (hours):
 
Tides and Currents Weather Stations Pressure Air Temp Water Temp Dewpoint Dewpoint Depression Visibility Wind Speed Wind Dir Waves Ship Positions

Oceanographic research ship James Cook (UK)

Last reported at 2017-Aug-18 00:00 UTC. Time now 2017-Aug-18 02:45 UTC.
Position N 46°00' W 008°30'.

Length 89.2 m; beam 18.6 m; draft 5.7 m.

Type: Other ship. MMSI: 235010700.

Wind from 270 at 13 knots

Barometer 1017.9 mb
Air temperature 19.2 ° C
Visibility: greater than 10.8 NM
Dewpoint 17.2 ° C
Water temperature 19.5 ° C

Date/timePositionNaut miles runAvg speedWind from/ knotsBaromVisibWave heightAir tempDewpointWater temp
2017-Aug-18 00:00N 46°00' W 008°30'56 9.4 270 / 131017.910.8 19.217.219.5
2017-Aug-17 18:00N 45°12' W 009°12'84 9.3 260 / 111017.810.8 19.018.019.8
2017-Aug-17 09:00N 44°00' W 010°12'3110.4 230 / 151019.9 5.4 21.519.220.1
2017-Aug-17 06:00N 43°30' W 010°24'6310.4 250 / 111020.210.8 19.818.519.9
2017-Aug-17 00:00N 42°30' W 010°48'56 9.3 260 / 121021.910.8 19.819.020.1
2017-Aug-16 18:00N 41°36' W 011°06'57 9.5 300 / 91022.6 21.919.720.8
2017-Aug-16 12:00N 40°42' W 011°30'1010.1 320 / 41024.010.8 21.917.920.9
2017-Aug-16 11:00N 40°37' W 011°41'1610.4
2017-Aug-16 09:28N 40°22' W 011°48'5 9.8
2017-Aug-16 08:59N 40°17' W 011°49'3612.0
2017-Aug-16 06:00N 39°42' W 012°00'16 7.8 360 / 111022.910.8 20.016.421.1
2017-Aug-16 03:57N 39°27' W 012°08'610.1
2017-Aug-16 03:23N 39°22' W 012°11'710.4
2017-Aug-16 02:45N 39°16' W 012°14'310.2
2017-Aug-16 02:30N 39°14' W 012°15'3212.9
2017-Aug-16 00:00N 38°42' W 012°24'26 8.6 340 / 161024.110.8 20.918.721.7
2017-Aug-15 21:00N 38°18' W 012°36'3612.0 360 / 141023.910.8 21.518.321.8
2017-Aug-15 18:00N 37°42' W 012°36'30 8.9 010 / 171022.310.8 21.118.721.8
2017-Aug-15 14:36N 37°14' W 012°51'110.0
2017-Aug-15 14:29N 37°13' W 012°52'510.1
2017-Aug-15 13:57N 37°09' W 012°56'610.0
2017-Aug-15 13:22N 37°05' W 013°01'610.3
2017-Aug-15 12:49N 37°00' W 013°05'12 9.9
2017-Aug-15 11:35N 36°48' W 013°08'110.4
2017-Aug-15 11:30N 36°48' W 013°08'710.4
2017-Aug-15 10:50N 36°41' W 013°11'5411.2
2017-Aug-15 06:00N 35°48' W 013°24'2 5.6 040 / 151019.510.8 21.116.722.2
2017-Aug-15 05:35N 35°46' W 013°26'210.8
2017-Aug-15 05:25N 35°45' W 013°27'710.9
2017-Aug-15 04:49N 35°39' W 013°29'511.0
2017-Aug-15 04:23N 35°34' W 013°31'411.0
2017-Aug-15 04:00N 35°30' W 013°33'1111.0
2017-Aug-15 03:00N 35°20' W 013°38'911.2
2017-Aug-15 02:10N 35°11' W 013°42'211.2
2017-Aug-15 01:58N 35°09' W 013°43'511.1
2017-Aug-15 01:30N 35°04' W 013°45'511.0
2017-Aug-15 01:00N 34°59' W 013°47'711.0
2017-Aug-15 00:23N 34°53' W 013°50'410.9
2017-Aug-15 00:01N 34°49' W 013°52'510.8
2017-Aug-14 23:30N 34°44' W 013°54'510.9
2017-Aug-14 23:01N 34°39' W 013°56'611.3
2017-Aug-14 22:28N 34°33' W 013°58'611.4
2017-Aug-14 21:58N 34°27' W 014°00'2910.9
2017-Aug-14 19:18N 34°02' W 014°18'511.2
2017-Aug-14 18:54N 33°59' W 014°22'711.0
2017-Aug-14 18:14N 33°54' W 014°29'310.8
2017-Aug-14 18:00N 33°53' W 014°31'5424.4
2017-Aug-14 18:00N 33°48' W 014°30'510.5 040 / 151017.110.8 22.018.422.6
2017-Aug-14 17:30N 33°49' W 014°36'610.6
2017-Aug-14 16:59N 33°44' W 014°39'510.9
2017-Aug-14 16:30N 33°39' W 014°41'510.9
2017-Aug-14 16:00N 33°34' W 014°44'711.0
2017-Aug-14 15:20N 33°28' W 014°47'411.0
2017-Aug-14 15:00N 33°24' W 014°48'810.7
2017-Aug-14 14:14N 33°16' W 014°52'310.6
2017-Aug-14 14:00N 33°14' W 014°53'510.8
2017-Aug-14 13:31N 33°09' W 014°55'510.8
2017-Aug-14 13:01N 33°04' W 014°57'510.8
2017-Aug-14 12:31N 32°58' W 014°56'510.8
2017-Aug-14 12:01N 32°53' W 014°54'510.8
2017-Aug-14 11:31N 32°48' W 014°53'510.8
2017-Aug-14 11:00N 32°42' W 014°52'3210.8
2017-Aug-14 08:06N 32°11' W 014°46'110.9
2017-Aug-14 08:00N 32°10' W 014°46'510.9
2017-Aug-14 07:31N 32°05' W 014°48'610.9
2017-Aug-14 07:00N 31°60' W 014°50'811.0
2017-Aug-14 06:17N 31°52' W 014°52'311.2
2017-Aug-14 06:00N 31°49' W 014°53'5281.1
2017-Aug-14 06:00N 31°48' W 014°48'714.6 020 / 121014.510.8 21.518.522.9
2017-Aug-14 05:30N 31°44' W 014°55'611.2
2017-Aug-14 04:57N 31°38' W 014°57'511.1
2017-Aug-14 04:29N 31°33' W 014°59'611.2
2017-Aug-14 03:55N 31°27' W 015°01'511.2
2017-Aug-14 03:29N 31°22' W 015°03'511.2
2017-Aug-14 03:00N 31°17' W 015°04'611.1
2017-Aug-14 02:26N 31°11' W 015°06'511.1
2017-Aug-14 02:00N 31°07' W 015°08'510.9
2017-Aug-14 01:30N 31°01' W 015°10'610.9
2017-Aug-14 01:00N 30°56' W 015°12'510.9
2017-Aug-14 00:30N 30°51' W 015°13'510.9
2017-Aug-14 00:00N 30°46' W 015°15'510.8
2017-Aug-13 23:30N 30°41' W 015°17'510.8
2017-Aug-13 23:00N 30°36' W 015°19'510.6
2017-Aug-13 22:31N 30°30' W 015°21'510.4
2017-Aug-13 22:01N 30°25' W 015°22'510.4
2017-Aug-13 21:31N 30°20' W 015°24'510.4
2017-Aug-13 21:00N 30°15' W 015°26'510.4
2017-Aug-13 20:30N 30°10' W 015°27'510.4
2017-Aug-13 20:00N 30°06' W 015°29'510.5
2017-Aug-13 19:30N 30°00' W 015°31'510.6
2017-Aug-13 19:00N 29°55' W 015°33'510.6
2017-Aug-13 18:29N 29°50' W 015°34'510.7
2017-Aug-13 17:59N 29°45' W 015°36'510.7
2017-Aug-13 17:31N 29°40' W 015°38'510.6
2017-Aug-13 17:00N 29°35' W 015°39'510.6
2017-Aug-13 16:31N 29°30' W 015°41'510.8
2017-Aug-13 16:00N 29°25' W 015°43'510.8
2017-Aug-13 15:31N 29°20' W 015°45'610.8
2017-Aug-13 14:59N 29°14' W 015°47'510.9
2017-Aug-13 14:30N 29°09' W 015°48'510.9
2017-Aug-13 14:01N 29°04' W 015°50'610.8
2017-Aug-13 13:29N 28°59' W 015°52'510.7
2017-Aug-13 13:00N 28°54' W 015°54'510.5
2017-Aug-13 12:30N 28°49' W 015°56'510.2
2017-Aug-13 12:00N 28°44' W 015°57'3256.2
2017-Aug-13 12:00N 28°42' W 015°54'510.6 340 / 141017.510.8 23.518.523.9
2017-Aug-13 11:30N 28°39' W 015°59'5 9.6
2017-Aug-13 11:00N 28°34' W 016°01'5 9.7
2017-Aug-13 10:30N 28°31' W 016°05'5 9.5
2017-Aug-13 10:00N 28°28' W 016°09'510.0
2017-Aug-13 09:30N 28°27' W 016°14'1 1.6
2017-Aug-13 08:59N 28°28' W 016°15'0 0.0
2017-Aug-13 08:21N 28°28' W 016°15'0 0.0
2017-Aug-13 07:57N 28°28' W 016°15'0 0.0
2017-Aug-13 07:21N 28°28' W 016°15'0 0.0
2017-Aug-13 06:55N 28°28' W 016°15'0 0.0
2017-Aug-13 06:28N 28°28' W 016°15'0 0.0
2017-Aug-13 05:52N 28°28' W 016°15'0 0.0
2017-Aug-13 05:29N 28°28' W 016°15'0 0.0
2017-Aug-13 04:53N 28°28' W 016°15'0 0.0
2017-Aug-13 04:26N 28°28' W 016°15'0 0.0
2017-Aug-13 03:51N 28°28' W 016°15'0 0.0
2017-Aug-13 03:27N 28°28' W 016°15'0 0.0
2017-Aug-13 03:00N 28°28' W 016°15'0 0.0
2017-Aug-13 02:13N 28°28' W 016°15'0 0.0
2017-Aug-13 01:46N 28°28' W 016°15'0 0.0
2017-Aug-12 23:53N 28°28' W 016°15'0 0.0
2017-Aug-12 23:30N 28°28' W 016°15'0 0.0
2017-Aug-12 22:51N 28°28' W 016°15'0 0.0
2017-Aug-12 21:52N 28°28' W 016°15'0 0.0
2017-Aug-12 21:16N 28°28' W 016°15'0 0.0
2017-Aug-12 18:54N 28°28' W 016°15'0 0.0
2017-Aug-12 07:34N 28°28' W 016°15'0 0.0
2017-Aug-12 07:25N 28°28' W 016°15'0 0.0
2017-Aug-12 06:59N 28°28' W 016°15'0 0.0
2017-Aug-12 06:30N 28°28' W 016°15'1 2.8
2017-Aug-12 06:00N 28°27' W 016°14'2 4.5
2017-Aug-12 05:31N 28°24' W 016°13'10 7.6
2017-Aug-12 04:15N 28°16' W 016°19'210.0
2017-Aug-12 04:00N 28°14' W 016°20'36 8.9
2017-Aug-12 00:00N 27°48' W 016°48'6310.5 340 / 171016.910.8 24.120.623.8
2017-Aug-11 18:00N 27°24' W 017°54'12010.0 030 / 241016.010.8 25.520.326.1
2017-Aug-11 06:00N 26°30' W 019°54'3810.6 040 / 221014.510.8 24.522.326.2
2017-Aug-11 02:23N 26°19' W 020°35'1110.1
2017-Aug-11 01:19N 26°15' W 020°46'310.1
2017-Aug-11 01:00N 26°13' W 020°49'11 9.9
2017-Aug-10 23:55N 26°09' W 020°60'8 9.8
2017-Aug-10 23:06N 26°05' W 021°08'1 9.7
2017-Aug-10 23:00N 26°05' W 021°09'1210.1
2017-Aug-10 21:47N 26°00' W 021°21'1710.2
2017-Aug-10 20:08N 25°53' W 021°38'210.1
2017-Aug-10 19:59N 25°52' W 021°40'1510.2
2017-Aug-10 18:30N 25°46' W 021°55'611.6
2017-Aug-10 18:00N 25°42' W 022°00'13110.9 010 / 201014.510.8 24.522.326.3
2017-Aug-10 06:00N 24°48' W 024°12'6711.2 030 / 141015.810.8 25.021.126.2
2017-Aug-10 00:00N 24°18' W 025°18'6510.8 360 / 181017.6 5.4 24.519.224.7
2017-Aug-09 18:00N 23°54' W 026°24'6711.2 020 / 161016.810.8 25.520.226.2
2017-Aug-09 12:00N 23°24' W 027°30'8 8.1 060 / 141019.410.8 25.521.025.1
2017-Aug-09 11:00N 23°18' W 027°36'5310.6 020 / 121019.4 25.020.125.2
2017-Aug-09 06:00N 23°00' W 028°30'6811.3 020 / 161018.010.8 24.519.425.4
2017-Aug-09 00:00N 22°30' W 029°36'78 6.5 040 / 191019.010.8 25.020.125.5
2017-Aug-08 12:00N 22°00' W 030°54'6 0.5 040 / 171019.210.8 26.019.925.0
2017-Aug-08 00:00N 22°00' W 031°00'   020 / 121019.710.8 24.820.925.1

Dump ship's entire track history